ASA1392 KSAN-KPDX
Flight info
| Callsign | ASA1392 |
|---|---|
| Flight time | 2h 5m |
| Altitude | 38000 |
| Route | PADRZ2 EHF DNOLD GALLO TMBRS4 |
| Aircraft | B38M/M-SDE1FGHILORVWXY/HB1 |
Departure
| Time | 2026-04-26 03:28 |
|---|---|
| Airport | San Diego International Airport (KSAN) |
Arrival
| Time | 2026-04-26 05:33 |
|---|---|
| Airport | Portland International Airport (KPDX) |
| Time | Latitude | Longitude | Altitude | Speed | Heading |
|---|---|---|---|---|---|
| 2026-04-26 02:43 | 32.73303 | -117.20062 | 27 ft | 0 kts | 275° |
| 2026-04-26 03:09 | 32.73303 | -117.20055 | 25 ft | 2 kts | 275° |
| 2026-04-26 03:09 | 32.73301 | -117.20035 | 29 ft | 2 kts | 276° |
| 2026-04-26 03:10 | 32.73299 | -117.20016 | 25 ft | 2 kts | 280° |
| 2026-04-26 03:10 | 32.73294 | -117.19998 | 29 ft | 2 kts | 311° |
| 2026-04-26 03:10 | 32.73282 | -117.19991 | 29 ft | 1 kts | 1° |
| 2026-04-26 03:10 | 32.73281 | -117.19991 | 30 ft | 0 kts | 2° |
| 2026-04-26 03:12 | 32.73308 | -117.19990 | 29 ft | 10 kts | 2° |
| 2026-04-26 03:12 | 32.73395 | -117.19972 | 25 ft | 13 kts | 14° |
| 2026-04-26 03:13 | 32.73428 | -117.19963 | 25 ft | 0 kts | 12° |
| 2026-04-26 03:13 | 32.73429 | -117.19963 | 25 ft | 0 kts | 12° |
| 2026-04-26 03:17 | 32.73430 | -117.19962 | 29 ft | 2 kts | 12° |
| 2026-04-26 03:17 | 32.73473 | -117.19928 | 25 ft | 15 kts | 75° |
| 2026-04-26 03:18 | 32.73444 | -117.19759 | 29 ft | 26 kts | 105° |
| 2026-04-26 03:18 | 32.73412 | -117.19628 | 27 ft | 11 kts | 105° |
| 2026-04-26 03:18 | 32.73387 | -117.19528 | 29 ft | 17 kts | 107° |
| 2026-04-26 03:18 | 32.73367 | -117.19442 | 28 ft | 8 kts | 105° |
| 2026-04-26 03:19 | 32.73354 | -117.19388 | 26 ft | 8 kts | 107° |
| 2026-04-26 03:19 | 32.73323 | -117.19260 | 27 ft | 24 kts | 106° |
| 2026-04-26 03:19 | 32.73282 | -117.19088 | 26 ft | 18 kts | 106° |
| 2026-04-26 03:19 | 32.73251 | -117.18961 | 26 ft | 9 kts | 104° |
| 2026-04-26 03:20 | 32.73246 | -117.18940 | 28 ft | 5 kts | 109° |
| 2026-04-26 03:20 | 32.73218 | -117.18826 | 27 ft | 23 kts | 102° |
| 2026-04-26 03:20 | 32.73166 | -117.18611 | 28 ft | 29 kts | 106° |
| 2026-04-26 03:20 | 32.73137 | -117.18493 | 28 ft | 0 kts | 106° |
| 2026-04-26 03:21 | 32.73132 | -117.18469 | 27 ft | 9 kts | 106° |
| 2026-04-26 03:21 | 32.73099 | -117.18332 | 30 ft | 25 kts | 104° |
| 2026-04-26 03:22 | 32.73046 | -117.18117 | 26 ft | 29 kts | 106° |
| 2026-04-26 03:22 | 32.72989 | -117.17883 | 27 ft | 26 kts | 107° |
| 2026-04-26 03:22 | 32.72949 | -117.17725 | 28 ft | 10 kts | 97° |
| 2026-04-26 03:22 | 32.72955 | -117.17673 | 26 ft | 0 kts | 71° |
| 2026-04-26 03:23 | 32.72957 | -117.17669 | 26 ft | 0 kts | 72° |
| 2026-04-26 03:25 | 32.72960 | -117.17658 | 28 ft | 5 kts | 71° |
| 2026-04-26 03:25 | 32.73021 | -117.17599 | 30 ft | 14 kts | 331° |
| 2026-04-26 03:25 | 32.73031 | -117.17616 | 29 ft | 0 kts | 270° |
| 2026-04-26 03:26 | 32.73032 | -117.17620 | 29 ft | 0 kts | 285° |
| 2026-04-26 03:27 | 32.73033 | -117.17624 | 29 ft | 3 kts | 285° |
| 2026-04-26 03:27 | 32.73064 | -117.17764 | 28 ft | 47 kts | 284° |
| 2026-04-26 03:27 | 32.73230 | -117.18445 | 29 ft | 123 kts | 286° |
| 2026-04-26 03:28 | 32.73518 | -117.19617 | 224 ft | 161 kts | 284° |
| 2026-04-26 03:28 | 32.73843 | -117.21035 | 642 ft | 189 kts | 284° |
| 2026-04-26 03:28 | 32.74217 | -117.22535 | 1698 ft | 181 kts | 292° |
| 2026-04-26 03:28 | 32.74882 | -117.23896 | 2447 ft | 208 kts | 301° |
| 2026-04-26 03:29 | 32.75764 | -117.25318 | 3226 ft | 221 kts | 304° |
| 2026-04-26 03:29 | 32.76721 | -117.26795 | 3988 ft | 232 kts | 304° |
| 2026-04-26 03:29 | 32.77693 | -117.28319 | 4178 ft | 233 kts | 304° |
| 2026-04-26 03:29 | 32.78670 | -117.29864 | 4277 ft | 233 kts | 304° |
| 2026-04-26 03:30 | 32.79649 | -117.31424 | 4462 ft | 237 kts | 304° |
| 2026-04-26 03:30 | 32.80651 | -117.32987 | 4701 ft | 237 kts | 304° |
| 2026-04-26 03:30 | 32.81660 | -117.34550 | 4785 ft | 238 kts | 305° |
| 2026-04-26 03:30 | 32.82676 | -117.36104 | 4833 ft | 237 kts | 305° |
| 2026-04-26 03:31 | 32.83670 | -117.37639 | 4884 ft | 238 kts | 305° |
| 2026-04-26 03:31 | 32.84676 | -117.39201 | 4905 ft | 241 kts | 304° |
| 2026-04-26 03:31 | 32.85748 | -117.40879 | 5481 ft | 251 kts | 305° |
| 2026-04-26 03:31 | 32.86838 | -117.42556 | 6547 ft | 256 kts | 305° |
| 2026-04-26 03:32 | 32.87940 | -117.44257 | 7542 ft | 261 kts | 304° |
| 2026-04-26 03:32 | 32.89055 | -117.45977 | 8604 ft | 261 kts | 304° |
| 2026-04-26 03:32 | 32.90175 | -117.47710 | 9607 ft | 266 kts | 303° |
| 2026-04-26 03:32 | 32.91311 | -117.49472 | 10447 ft | 274 kts | 303° |
| 2026-04-26 03:33 | 32.92511 | -117.51339 | 10928 ft | 293 kts | 303° |
| 2026-04-26 03:33 | 32.93779 | -117.53309 | 11541 ft | 306 kts | 303° |
| 2026-04-26 03:33 | 32.95084 | -117.55340 | 12362 ft | 310 kts | 302° |
| 2026-04-26 03:33 | 32.96405 | -117.57397 | 13247 ft | 315 kts | 302° |
| 2026-04-26 03:34 | 32.97743 | -117.59483 | 14076 ft | 319 kts | 302° |
| 2026-04-26 03:34 | 32.99095 | -117.61593 | 14881 ft | 322 kts | 302° |
| 2026-04-26 03:34 | 33.00460 | -117.63723 | 15714 ft | 325 kts | 301° |
| 2026-04-26 03:34 | 33.01826 | -117.65850 | 16442 ft | 331 kts | 302° |
| 2026-04-26 03:35 | 33.03232 | -117.68041 | 17198 ft | 334 kts | 302° |
| 2026-04-26 03:35 | 33.04645 | -117.70257 | 17975 ft | 338 kts | 301° |
| 2026-04-26 03:35 | 33.06085 | -117.72492 | 18656 ft | 343 kts | 303° |
| 2026-04-26 03:35 | 33.07865 | -117.74448 | 19350 ft | 351 kts | 312° |
| 2026-04-26 03:36 | 33.09730 | -117.76348 | 19965 ft | 354 kts | 311° |
| 2026-04-26 03:36 | 33.11610 | -117.78270 | 20598 ft | 357 kts | 310° |
| 2026-04-26 03:36 | 33.13503 | -117.80201 | 21233 ft | 360 kts | 309° |
| 2026-04-26 03:36 | 33.15414 | -117.82149 | 21846 ft | 363 kts | 309° |
| 2026-04-26 03:37 | 33.17341 | -117.84112 | 22465 ft | 365 kts | 309° |
| 2026-04-26 03:37 | 33.19293 | -117.86084 | 23069 ft | 370 kts | 309° |
| 2026-04-26 03:37 | 33.21300 | -117.88031 | 23640 ft | 374 kts | 309° |
| 2026-04-26 03:37 | 33.23329 | -117.90005 | 24115 ft | 377 kts | 309° |
| 2026-04-26 03:38 | 33.25367 | -117.91992 | 24619 ft | 379 kts | 309° |
| 2026-04-26 03:38 | 33.27412 | -117.93989 | 25101 ft | 381 kts | 309° |
| 2026-04-26 03:38 | 33.29449 | -117.95980 | 25577 ft | 383 kts | 309° |
| 2026-04-26 03:38 | 33.31519 | -117.98006 | 26045 ft | 386 kts | 309° |
| 2026-04-26 03:39 | 33.33603 | -118.00045 | 26505 ft | 388 kts | 309° |
| 2026-04-26 03:39 | 33.35699 | -118.02098 | 26968 ft | 391 kts | 309° |
| 2026-04-26 03:39 | 33.37807 | -118.04165 | 27414 ft | 393 kts | 309° |
| 2026-04-26 03:39 | 33.39929 | -118.06247 | 27861 ft | 397 kts | 310° |
| 2026-04-26 03:40 | 33.42080 | -118.08357 | 28265 ft | 400 kts | 309° |
| 2026-04-26 03:40 | 33.44225 | -118.10464 | 28760 ft | 400 kts | 309° |
| 2026-04-26 03:40 | 33.46389 | -118.12590 | 29151 ft | 404 kts | 309° |
| 2026-04-26 03:40 | 33.48566 | -118.14731 | 29562 ft | 406 kts | 309° |
| 2026-04-26 03:41 | 33.50016 | -118.16158 | 29832 ft | 408 kts | 309° |
| 2026-04-26 03:41 | 33.52216 | -118.18324 | 30188 ft | 410 kts | 309° |
| 2026-04-26 03:41 | 33.54428 | -118.20502 | 30514 ft | 413 kts | 309° |
| 2026-04-26 03:41 | 33.56657 | -118.22688 | 30841 ft | 416 kts | 311° |
| 2026-04-26 03:42 | 33.59210 | -118.24501 | 31202 ft | 437 kts | 326° |
| 2026-04-26 03:42 | 33.61986 | -118.26003 | 31525 ft | 438 kts | 324° |
| 2026-04-26 03:42 | 33.64761 | -118.27555 | 31800 ft | 441 kts | 324° |
| 2026-04-26 03:42 | 33.67556 | -118.29103 | 32121 ft | 443 kts | 324° |
| 2026-04-26 03:43 | 33.70372 | -118.30658 | 32418 ft | 446 kts | 324° |
| 2026-04-26 03:43 | 33.73192 | -118.32214 | 32732 ft | 448 kts | 324° |
| 2026-04-26 03:43 | 33.76056 | -118.33748 | 33027 ft | 452 kts | 327° |
| 2026-04-26 03:43 | 33.78967 | -118.35204 | 33355 ft | 454 kts | 327° |
| 2026-04-26 03:44 | 33.81904 | -118.36685 | 33568 ft | 458 kts | 327° |
| 2026-04-26 03:44 | 33.84801 | -118.38153 | 33903 ft | 459 kts | 327° |
| 2026-04-26 03:44 | 33.87746 | -118.39649 | 34236 ft | 459 kts | 327° |
| 2026-04-26 03:44 | 33.90681 | -118.41140 | 34563 ft | 458 kts | 327° |
| 2026-04-26 03:45 | 33.93619 | -118.42635 | 34894 ft | 458 kts | 327° |
| 2026-04-26 03:45 | 33.96553 | -118.44128 | 35222 ft | 457 kts | 327° |
| 2026-04-26 03:45 | 33.99497 | -118.45566 | 35555 ft | 462 kts | 334° |
| 2026-04-26 03:45 | 34.02712 | -118.46322 | 35836 ft | 476 kts | 346° |
| 2026-04-26 03:46 | 34.05996 | -118.46829 | 36097 ft | 475 kts | 344° |
| 2026-04-26 03:46 | 34.09279 | -118.47360 | 36359 ft | 476 kts | 344° |
| 2026-04-26 03:46 | 34.12569 | -118.47874 | 36649 ft | 476 kts | 344° |
| 2026-04-26 03:47 | 34.19143 | -118.48887 | 37218 ft | 475 kts | 344° |
| 2026-04-26 03:47 | 34.22382 | -118.49385 | 37523 ft | 475 kts | 345° |
| 2026-04-26 03:47 | 34.25656 | -118.49889 | 37779 ft | 474 kts | 345° |
| 2026-04-26 03:47 | 34.28938 | -118.50395 | 37960 ft | 475 kts | 345° |
| 2026-04-26 03:48 | 34.32217 | -118.50900 | 37973 ft | 475 kts | 345° |
| 2026-04-26 03:48 | 34.38749 | -118.51909 | 37958 ft | 472 kts | 345° |
| 2026-04-26 03:49 | 34.45275 | -118.52918 | 37948 ft | 473 kts | 345° |
| 2026-04-26 03:49 | 34.51802 | -118.53929 | 37907 ft | 472 kts | 345° |
| 2026-04-26 03:50 | 34.58323 | -118.54940 | 37904 ft | 473 kts | 345° |
| 2026-04-26 03:50 | 34.64852 | -118.55954 | 37910 ft | 472 kts | 346° |
| 2026-04-26 03:51 | 34.71383 | -118.56971 | 37883 ft | 473 kts | 346° |
| 2026-04-26 03:51 | 34.77916 | -118.57989 | 37883 ft | 473 kts | 346° |
| 2026-04-26 03:52 | 34.84440 | -118.59008 | 37895 ft | 473 kts | 346° |
| 2026-04-26 03:52 | 34.90969 | -118.60028 | 37902 ft | 473 kts | 346° |
| 2026-04-26 03:53 | 34.97493 | -118.61061 | 37916 ft | 471 kts | 343° |
| 2026-04-26 03:53 | 35.00601 | -118.62118 | 37873 ft | 454 kts | 327° |
| 2026-04-26 03:53 | 35.03210 | -118.64050 | 37930 ft | 439 kts | 315° |
| 2026-04-26 03:54 | 35.08062 | -118.68645 | 37923 ft | 442 kts | 314° |
| 2026-04-26 03:54 | 35.12839 | -118.73396 | 37908 ft | 443 kts | 314° |
| 2026-04-26 03:55 | 35.17583 | -118.78199 | 37899 ft | 443 kts | 314° |
| 2026-04-26 03:55 | 35.22324 | -118.83019 | 37904 ft | 443 kts | 314° |
| 2026-04-26 03:56 | 35.27061 | -118.87843 | 37927 ft | 444 kts | 314° |
| 2026-04-26 03:56 | 35.31807 | -118.92685 | 37912 ft | 444 kts | 314° |
| 2026-04-26 03:57 | 35.36555 | -118.97536 | 37923 ft | 444 kts | 314° |
| 2026-04-26 03:57 | 35.41286 | -119.02378 | 37914 ft | 443 kts | 314° |
| 2026-04-26 03:58 | 35.46017 | -119.07227 | 37910 ft | 444 kts | 314° |
| 2026-04-26 03:58 | 35.48577 | -119.09405 | 37882 ft | 453 kts | 328° |
| 2026-04-26 03:58 | 35.51545 | -119.10780 | 37933 ft | 460 kts | 336° |
| 2026-04-26 03:59 | 35.57667 | -119.13195 | 37927 ft | 462 kts | 336° |
| 2026-04-26 03:59 | 35.63815 | -119.15547 | 37953 ft | 463 kts | 337° |
| 2026-04-26 04:00 | 35.69928 | -119.17870 | 37933 ft | 463 kts | 337° |
| 2026-04-26 04:00 | 35.76082 | -119.20212 | 37932 ft | 463 kts | 337° |
| 2026-04-26 04:01 | 35.82233 | -119.22555 | 37946 ft | 463 kts | 337° |
| 2026-04-26 04:01 | 35.88382 | -119.24903 | 37938 ft | 462 kts | 337° |
| 2026-04-26 04:02 | 35.94505 | -119.27244 | 37928 ft | 460 kts | 337° |
| 2026-04-26 04:02 | 36.00626 | -119.29588 | 37936 ft | 461 kts | 337° |
| 2026-04-26 04:03 | 36.06748 | -119.31936 | 37933 ft | 461 kts | 338° |
| 2026-04-26 04:03 | 36.12879 | -119.34291 | 37924 ft | 461 kts | 338° |
| 2026-04-26 04:04 | 36.19002 | -119.36648 | 37929 ft | 461 kts | 338° |
| 2026-04-26 04:04 | 36.25135 | -119.39012 | 37934 ft | 461 kts | 338° |
| 2026-04-26 04:05 | 36.31257 | -119.41375 | 37935 ft | 461 kts | 338° |
| 2026-04-26 04:05 | 36.37340 | -119.43728 | 37934 ft | 461 kts | 338° |
| 2026-04-26 04:06 | 36.43470 | -119.46102 | 37931 ft | 461 kts | 338° |
| 2026-04-26 04:06 | 36.49608 | -119.48484 | 37920 ft | 462 kts | 338° |
| 2026-04-26 04:07 | 36.55753 | -119.50872 | 37915 ft | 462 kts | 338° |
| 2026-04-26 04:07 | 36.61892 | -119.53262 | 37924 ft | 463 kts | 338° |
| 2026-04-26 04:08 | 36.68042 | -119.55661 | 37920 ft | 462 kts | 338° |
| 2026-04-26 04:08 | 36.74185 | -119.58060 | 37933 ft | 463 kts | 338° |
| 2026-04-26 04:09 | 36.80300 | -119.60452 | 37933 ft | 463 kts | 338° |
| 2026-04-26 04:09 | 36.86442 | -119.62860 | 37931 ft | 463 kts | 338° |
| 2026-04-26 04:10 | 36.92591 | -119.65274 | 37926 ft | 463 kts | 338° |
| 2026-04-26 04:10 | 36.98731 | -119.67688 | 37935 ft | 463 kts | 338° |
| 2026-04-26 04:11 | 37.04900 | -119.70118 | 37920 ft | 465 kts | 338° |
| 2026-04-26 04:11 | 37.11077 | -119.72556 | 37904 ft | 465 kts | 338° |
| 2026-04-26 04:12 | 37.17250 | -119.74996 | 37920 ft | 465 kts | 338° |
| 2026-04-26 04:12 | 37.23419 | -119.77438 | 37903 ft | 464 kts | 338° |
| 2026-04-26 04:13 | 37.29589 | -119.79885 | 37912 ft | 465 kts | 338° |
| 2026-04-26 04:13 | 37.35715 | -119.82319 | 37907 ft | 464 kts | 338° |
| 2026-04-26 04:14 | 37.41854 | -119.84762 | 37900 ft | 461 kts | 338° |
| 2026-04-26 04:14 | 37.47970 | -119.87201 | 37915 ft | 461 kts | 338° |
| 2026-04-26 04:15 | 37.54090 | -119.89645 | 37911 ft | 461 kts | 338° |
| 2026-04-26 04:15 | 37.60202 | -119.92090 | 37912 ft | 460 kts | 339° |
| 2026-04-26 04:16 | 37.66313 | -119.94539 | 37909 ft | 460 kts | 339° |
| 2026-04-26 04:16 | 37.72416 | -119.96989 | 37905 ft | 460 kts | 339° |
| 2026-04-26 04:17 | 37.78518 | -119.99442 | 37903 ft | 459 kts | 339° |
| 2026-04-26 04:17 | 37.84569 | -120.01880 | 37911 ft | 459 kts | 339° |
| 2026-04-26 04:18 | 37.90660 | -120.04338 | 37900 ft | 459 kts | 339° |
| 2026-04-26 04:18 | 37.96749 | -120.06800 | 37898 ft | 459 kts | 339° |
| 2026-04-26 04:19 | 38.02834 | -120.09263 | 37910 ft | 460 kts | 339° |
| 2026-04-26 04:19 | 38.08922 | -120.11733 | 37911 ft | 459 kts | 339° |
| 2026-04-26 04:20 | 38.14994 | -120.14200 | 37897 ft | 457 kts | 339° |
| 2026-04-26 04:20 | 38.21062 | -120.16670 | 37902 ft | 458 kts | 339° |
| 2026-04-26 04:21 | 38.27135 | -120.19147 | 37896 ft | 458 kts | 339° |
| 2026-04-26 04:21 | 38.33199 | -120.21623 | 37893 ft | 457 kts | 339° |
| 2026-04-26 04:22 | 38.39257 | -120.24102 | 37891 ft | 457 kts | 339° |
| 2026-04-26 04:22 | 38.45288 | -120.26575 | 37885 ft | 457 kts | 339° |
| 2026-04-26 04:23 | 38.51349 | -120.29064 | 37898 ft | 457 kts | 339° |
| 2026-04-26 04:23 | 38.57405 | -120.31555 | 37888 ft | 457 kts | 339° |
| 2026-04-26 04:24 | 38.63463 | -120.34051 | 37886 ft | 457 kts | 339° |
| 2026-04-26 04:24 | 38.69527 | -120.36555 | 37884 ft | 457 kts | 339° |
| 2026-04-26 04:25 | 38.75586 | -120.39061 | 37899 ft | 457 kts | 339° |
| 2026-04-26 04:25 | 38.81562 | -120.41537 | 37900 ft | 454 kts | 339° |
| 2026-04-26 04:26 | 38.87570 | -120.44030 | 37900 ft | 454 kts | 339° |
| 2026-04-26 04:26 | 38.92611 | -120.46126 | 37891 ft | 454 kts | 339° |
| 2026-04-26 04:27 | 38.98615 | -120.48626 | 37871 ft | 454 kts | 339° |
| 2026-04-26 04:27 | 39.04588 | -120.51118 | 37881 ft | 453 kts | 339° |
| 2026-04-26 04:28 | 39.10585 | -120.53624 | 37891 ft | 453 kts | 339° |
| 2026-04-26 04:28 | 39.16582 | -120.56134 | 37902 ft | 453 kts | 339° |
| 2026-04-26 04:29 | 39.22572 | -120.58647 | 37905 ft | 452 kts | 338° |
| 2026-04-26 04:29 | 39.28562 | -120.61163 | 37908 ft | 452 kts | 338° |
| 2026-04-26 04:30 | 39.34560 | -120.63688 | 37904 ft | 452 kts | 338° |
| 2026-04-26 04:30 | 39.40505 | -120.66195 | 37856 ft | 451 kts | 338° |
| 2026-04-26 04:31 | 39.46464 | -120.68712 | 37866 ft | 451 kts | 338° |
| 2026-04-26 04:31 | 39.52423 | -120.71233 | 37860 ft | 450 kts | 338° |
| 2026-04-26 04:32 | 39.58375 | -120.73758 | 37862 ft | 450 kts | 338° |
| 2026-04-26 04:32 | 39.64329 | -120.76286 | 37870 ft | 450 kts | 338° |
| 2026-04-26 04:33 | 39.70274 | -120.78815 | 37847 ft | 449 kts | 338° |
| 2026-04-26 04:33 | 39.76184 | -120.81334 | 37870 ft | 448 kts | 338° |
| 2026-04-26 04:34 | 39.82117 | -120.83868 | 37841 ft | 448 kts | 338° |
| 2026-04-26 04:34 | 39.88045 | -120.86404 | 37866 ft | 449 kts | 338° |
| 2026-04-26 04:35 | 39.93966 | -120.88942 | 37847 ft | 447 kts | 338° |
| 2026-04-26 04:35 | 39.99894 | -120.91486 | 37848 ft | 448 kts | 338° |
| 2026-04-26 04:36 | 40.05814 | -120.94032 | 37851 ft | 448 kts | 338° |
| 2026-04-26 04:36 | 40.11717 | -120.96575 | 37841 ft | 446 kts | 338° |
| 2026-04-26 04:37 | 40.17613 | -120.99120 | 37833 ft | 446 kts | 338° |
| 2026-04-26 04:37 | 40.23515 | -121.01672 | 37843 ft | 446 kts | 338° |
| 2026-04-26 04:38 | 40.29385 | -121.04214 | 37834 ft | 444 kts | 338° |
| 2026-04-26 04:38 | 40.35230 | -121.06750 | 37822 ft | 445 kts | 338° |
| 2026-04-26 04:39 | 40.41106 | -121.09304 | 37830 ft | 445 kts | 338° |
| 2026-04-26 04:39 | 40.47005 | -121.11782 | 37840 ft | 445 kts | 339° |
| 2026-04-26 04:40 | 40.52926 | -121.14212 | 37838 ft | 445 kts | 338° |
| 2026-04-26 04:40 | 40.58847 | -121.16650 | 37844 ft | 445 kts | 338° |
| 2026-04-26 04:41 | 40.64750 | -121.19086 | 37832 ft | 444 kts | 338° |
| 2026-04-26 04:41 | 40.70614 | -121.21511 | 37831 ft | 444 kts | 338° |
| 2026-04-26 04:42 | 40.76506 | -121.23951 | 37842 ft | 443 kts | 338° |
| 2026-04-26 04:42 | 40.82376 | -121.26387 | 37829 ft | 442 kts | 338° |
| 2026-04-26 04:43 | 40.88252 | -121.28830 | 37825 ft | 442 kts | 338° |
| 2026-04-26 04:43 | 40.94131 | -121.31278 | 37813 ft | 443 kts | 338° |
| 2026-04-26 04:44 | 41.00008 | -121.33731 | 37813 ft | 443 kts | 338° |
| 2026-04-26 04:44 | 41.05853 | -121.36174 | 37803 ft | 442 kts | 338° |
| 2026-04-26 04:45 | 41.11724 | -121.38633 | 37799 ft | 441 kts | 338° |
| 2026-04-26 04:45 | 41.17574 | -121.41088 | 37797 ft | 441 kts | 338° |
| 2026-04-26 04:46 | 41.23436 | -121.43553 | 37797 ft | 441 kts | 338° |
| 2026-04-26 04:46 | 41.29291 | -121.46019 | 37789 ft | 442 kts | 339° |
| 2026-04-26 04:47 | 41.35157 | -121.48495 | 37786 ft | 442 kts | 339° |
| 2026-04-26 04:47 | 41.41022 | -121.50975 | 37785 ft | 442 kts | 339° |
| 2026-04-26 04:48 | 41.49797 | -121.54693 | 37777 ft | 444 kts | 339° |
| 2026-04-26 04:48 | 41.55679 | -121.57192 | 37771 ft | 443 kts | 339° |
| 2026-04-26 04:49 | 41.61561 | -121.59696 | 37778 ft | 442 kts | 339° |
| 2026-04-26 04:49 | 41.67413 | -121.62192 | 37766 ft | 441 kts | 339° |
| 2026-04-26 04:50 | 41.73265 | -121.64692 | 37766 ft | 441 kts | 339° |
| 2026-04-26 04:50 | 41.79114 | -121.67196 | 37779 ft | 439 kts | 339° |
| 2026-04-26 04:51 | 41.84915 | -121.69683 | 37792 ft | 437 kts | 339° |
| 2026-04-26 04:51 | 41.90732 | -121.72183 | 37780 ft | 440 kts | 339° |
| 2026-04-26 04:52 | 41.96557 | -121.74692 | 37801 ft | 439 kts | 339° |
| 2026-04-26 04:52 | 42.02364 | -121.77196 | 37801 ft | 437 kts | 339° |
| 2026-04-26 04:53 | 42.08122 | -121.79685 | 37804 ft | 437 kts | 339° |
| 2026-04-26 04:53 | 42.13918 | -121.82195 | 37805 ft | 437 kts | 339° |
| 2026-04-26 04:54 | 42.19715 | -121.84711 | 37778 ft | 437 kts | 339° |
| 2026-04-26 04:54 | 42.25508 | -121.87228 | 37765 ft | 437 kts | 339° |
| 2026-04-26 04:55 | 42.31301 | -121.89751 | 37776 ft | 437 kts | 339° |
| 2026-04-26 04:55 | 42.37072 | -121.92270 | 37775 ft | 436 kts | 340° |
| 2026-04-26 04:56 | 42.42858 | -121.94800 | 37777 ft | 437 kts | 339° |
| 2026-04-26 04:56 | 42.48607 | -121.97318 | 37775 ft | 437 kts | 340° |
| 2026-04-26 04:57 | 42.54391 | -121.99857 | 37779 ft | 436 kts | 340° |
| 2026-04-26 04:57 | 42.60172 | -122.02400 | 37785 ft | 436 kts | 340° |
| 2026-04-26 04:58 | 42.65940 | -122.04942 | 37787 ft | 436 kts | 340° |
| 2026-04-26 04:58 | 42.71716 | -122.07491 | 37786 ft | 436 kts | 340° |
| 2026-04-26 04:59 | 42.77495 | -122.10046 | 37795 ft | 436 kts | 340° |
| 2026-04-26 04:59 | 42.83271 | -122.12605 | 37802 ft | 436 kts | 340° |
| 2026-04-26 05:00 | 42.89048 | -122.15171 | 37806 ft | 436 kts | 340° |
| 2026-04-26 05:00 | 42.94803 | -122.17829 | 37800 ft | 437 kts | 339° |
| 2026-04-26 05:01 | 43.00517 | -122.20510 | 37804 ft | 437 kts | 339° |
| 2026-04-26 05:01 | 43.06262 | -122.23205 | 37811 ft | 436 kts | 339° |
| 2026-04-26 05:02 | 43.12008 | -122.25905 | 37821 ft | 436 kts | 339° |
| 2026-04-26 05:02 | 43.17749 | -122.28608 | 37821 ft | 436 kts | 339° |
| 2026-04-26 05:03 | 43.23491 | -122.31317 | 37829 ft | 436 kts | 339° |
| 2026-04-26 05:03 | 43.29228 | -122.34030 | 37829 ft | 436 kts | 339° |
| 2026-04-26 05:04 | 43.34962 | -122.36746 | 37828 ft | 436 kts | 339° |
| 2026-04-26 05:04 | 43.40690 | -122.39465 | 37829 ft | 436 kts | 339° |
| 2026-04-26 05:05 | 43.46430 | -122.42200 | 37834 ft | 437 kts | 339° |
| 2026-04-26 05:05 | 43.52183 | -122.44950 | 37829 ft | 437 kts | 339° |
| 2026-04-26 05:06 | 43.57895 | -122.47686 | 37836 ft | 437 kts | 340° |
| 2026-04-26 05:06 | 43.63627 | -122.50436 | 37834 ft | 436 kts | 340° |
| 2026-04-26 05:07 | 43.69359 | -122.53193 | 37834 ft | 436 kts | 340° |
| 2026-04-26 05:07 | 43.75090 | -122.55953 | 37833 ft | 436 kts | 339° |
| 2026-04-26 05:08 | 43.80808 | -122.58715 | 37835 ft | 435 kts | 340° |
| 2026-04-26 05:08 | 43.86534 | -122.61485 | 37828 ft | 435 kts | 340° |
| 2026-04-26 05:09 | 43.89357 | -122.62853 | 37705 ft | 424 kts | 340° |
| 2026-04-26 05:09 | 43.92114 | -122.64189 | 37303 ft | 418 kts | 340° |
| 2026-04-26 05:09 | 43.94853 | -122.65519 | 36749 ft | 416 kts | 340° |
| 2026-04-26 05:09 | 43.97556 | -122.66833 | 36186 ft | 415 kts | 340° |
| 2026-04-26 05:10 | 44.00277 | -122.68156 | 35681 ft | 413 kts | 340° |
| 2026-04-26 05:10 | 44.02974 | -122.69470 | 35222 ft | 409 kts | 340° |
| 2026-04-26 05:10 | 44.05656 | -122.70777 | 34757 ft | 407 kts | 340° |
| 2026-04-26 05:10 | 44.08317 | -122.72075 | 34288 ft | 404 kts | 340° |
| 2026-04-26 05:11 | 44.10967 | -122.73368 | 33799 ft | 403 kts | 340° |
| 2026-04-26 05:11 | 44.13610 | -122.74625 | 33225 ft | 401 kts | 344° |
| 2026-04-26 05:11 | 44.16366 | -122.75109 | 32626 ft | 400 kts | 2° |
| 2026-04-26 05:11 | 44.18633 | -122.74876 | 32266 ft | 396 kts | 2° |
| 2026-04-26 05:12 | 44.21320 | -122.74650 | 31873 ft | 391 kts | 2° |
| 2026-04-26 05:12 | 44.24016 | -122.74406 | 31484 ft | 386 kts | 3° |
| 2026-04-26 05:12 | 44.25734 | -122.74244 | 31217 ft | 383 kts | 3° |
| 2026-04-26 05:12 | 44.28048 | -122.74023 | 30836 ft | 380 kts | 3° |
| 2026-04-26 05:13 | 44.30685 | -122.73767 | 30279 ft | 380 kts | 3° |
| 2026-04-26 05:13 | 44.33336 | -122.73507 | 29599 ft | 383 kts | 4° |
| 2026-04-26 05:13 | 44.35994 | -122.73246 | 28940 ft | 383 kts | 4° |
| 2026-04-26 05:13 | 44.38651 | -122.72984 | 28327 ft | 382 kts | 4° |
| 2026-04-26 05:14 | 44.41302 | -122.72722 | 27736 ft | 381 kts | 4° |
| 2026-04-26 05:14 | 44.43950 | -122.72461 | 27132 ft | 381 kts | 4° |
| 2026-04-26 05:14 | 44.46592 | -122.72199 | 26534 ft | 381 kts | 4° |
| 2026-04-26 05:14 | 44.49241 | -122.71937 | 25915 ft | 381 kts | 4° |
| 2026-04-26 05:15 | 44.51888 | -122.71674 | 25302 ft | 382 kts | 4° |
| 2026-04-26 05:15 | 44.54543 | -122.71410 | 24681 ft | 384 kts | 4° |
| 2026-04-26 05:15 | 44.57217 | -122.71145 | 24050 ft | 385 kts | 3° |
| 2026-04-26 05:15 | 44.59902 | -122.70876 | 23359 ft | 388 kts | 4° |
| 2026-04-26 05:16 | 44.62600 | -122.70606 | 22655 ft | 389 kts | 4° |
| 2026-04-26 05:16 | 44.65288 | -122.70336 | 22084 ft | 386 kts | 4° |
| 2026-04-26 05:16 | 44.67963 | -122.70067 | 21495 ft | 385 kts | 4° |
| 2026-04-26 05:16 | 44.70638 | -122.69798 | 20868 ft | 384 kts | 4° |
| 2026-04-26 05:17 | 44.73295 | -122.69531 | 20261 ft | 384 kts | 4° |
| 2026-04-26 05:17 | 44.75964 | -122.69262 | 19659 ft | 383 kts | 4° |
| 2026-04-26 05:17 | 44.78586 | -122.68997 | 19044 ft | 383 kts | 4° |
| 2026-04-26 05:17 | 44.81245 | -122.68730 | 18364 ft | 385 kts | 4° |
| 2026-04-26 05:18 | 44.83916 | -122.68461 | 17719 ft | 383 kts | 3° |
| 2026-04-26 05:18 | 44.86567 | -122.68195 | 17098 ft | 379 kts | 3° |
| 2026-04-26 05:18 | 44.89141 | -122.67936 | 16601 ft | 361 kts | 3° |
| 2026-04-26 05:18 | 44.91600 | -122.67689 | 16075 ft | 348 kts | 2° |
| 2026-04-26 05:19 | 44.93974 | -122.67449 | 15553 ft | 336 kts | 2° |
| 2026-04-26 05:19 | 44.96276 | -122.67217 | 15027 ft | 326 kts | 2° |
| 2026-04-26 05:19 | 44.98523 | -122.66990 | 14476 ft | 319 kts | 2° |
| 2026-04-26 05:19 | 45.00708 | -122.66767 | 14029 ft | 310 kts | 2° |
| 2026-04-26 05:20 | 45.02798 | -122.66556 | 13615 ft | 301 kts | 1° |
| 2026-04-26 05:20 | 45.04883 | -122.66344 | 13122 ft | 293 kts | 2° |
| 2026-04-26 05:20 | 45.06883 | -122.66142 | 12675 ft | 291 kts | 2° |
| 2026-04-26 05:20 | 45.08908 | -122.65937 | 12260 ft | 293 kts | 2° |
| 2026-04-26 05:21 | 45.10944 | -122.65729 | 11815 ft | 294 kts | 3° |
| 2026-04-26 05:21 | 45.12996 | -122.65520 | 11374 ft | 296 kts | 3° |
| 2026-04-26 05:21 | 45.15054 | -122.65310 | 10934 ft | 297 kts | 3° |
| 2026-04-26 05:21 | 45.17123 | -122.65099 | 10492 ft | 298 kts | 4° |
| 2026-04-26 05:22 | 45.19197 | -122.64887 | 10048 ft | 300 kts | 4° |
| 2026-04-26 05:22 | 45.21286 | -122.64674 | 9581 ft | 301 kts | 4° |
| 2026-04-26 05:22 | 45.23383 | -122.64460 | 9092 ft | 303 kts | 4° |
| 2026-04-26 05:22 | 45.25423 | -122.63818 | 8637 ft | 302 kts | 26° |
| 2026-04-26 05:23 | 45.27203 | -122.62262 | 8324 ft | 297 kts | 32° |
| 2026-04-26 05:23 | 45.28931 | -122.60706 | 8053 ft | 292 kts | 32° |
| 2026-04-26 05:23 | 45.30613 | -122.59196 | 7751 ft | 288 kts | 31° |
| 2026-04-26 05:23 | 45.32293 | -122.57685 | 7438 ft | 285 kts | 32° |
| 2026-04-26 05:24 | 45.33961 | -122.56187 | 7128 ft | 282 kts | 31° |
| 2026-04-26 05:24 | 45.35612 | -122.54703 | 6817 ft | 279 kts | 31° |
| 2026-04-26 05:24 | 45.37243 | -122.53236 | 6506 ft | 276 kts | 31° |
| 2026-04-26 05:24 | 45.38861 | -122.51779 | 6200 ft | 274 kts | 31° |
| 2026-04-26 05:25 | 45.40463 | -122.50335 | 5985 ft | 268 kts | 31° |
| 2026-04-26 05:25 | 45.42004 | -122.48929 | 5881 ft | 258 kts | 34° |
| 2026-04-26 05:25 | 45.43158 | -122.47050 | 5690 ft | 253 kts | 64° |
| 2026-04-26 05:25 | 45.43467 | -122.44621 | 5507 ft | 250 kts | 94° |
| 2026-04-26 05:26 | 45.42955 | -122.42290 | 5350 ft | 246 kts | 116° |
| 2026-04-26 05:26 | 45.42150 | -122.40178 | 5196 ft | 240 kts | 116° |
| 2026-04-26 05:26 | 45.41372 | -122.38121 | 5052 ft | 232 kts | 112° |
| 2026-04-26 05:26 | 45.41053 | -122.35972 | 4844 ft | 223 kts | 84° |
| 2026-04-26 05:27 | 45.41466 | -122.33906 | 4625 ft | 215 kts | 58° |
| 2026-04-26 05:27 | 45.42448 | -122.32360 | 4324 ft | 211 kts | 30° |
| 2026-04-26 05:27 | 45.43820 | -122.31701 | 4037 ft | 208 kts | 2° |
| 2026-04-26 05:27 | 45.45216 | -122.32024 | 3943 ft | 205 kts | 336° |
| 2026-04-26 05:28 | 45.46382 | -122.33203 | 3957 ft | 209 kts | 313° |
| 2026-04-26 05:28 | 45.47320 | -122.34700 | 3927 ft | 197 kts | 315° |
| 2026-04-26 05:28 | 45.48278 | -122.36108 | 3648 ft | 198 kts | 316° |
| 2026-04-26 05:28 | 45.49223 | -122.37479 | 3444 ft | 189 kts | 316° |
| 2026-04-26 05:29 | 45.50123 | -122.38822 | 3176 ft | 184 kts | 312° |
| 2026-04-26 05:29 | 45.50861 | -122.40246 | 2921 ft | 173 kts | 305° |
| 2026-04-26 05:29 | 45.51485 | -122.41677 | 2675 ft | 167 kts | 302° |
| 2026-04-26 05:29 | 45.52065 | -122.43129 | 2442 ft | 172 kts | 301° |
| 2026-04-26 05:30 | 45.52643 | -122.44599 | 2213 ft | 168 kts | 301° |
| 2026-04-26 05:30 | 45.53206 | -122.46032 | 1970 ft | 160 kts | 301° |
| 2026-04-26 05:30 | 45.53729 | -122.47364 | 1759 ft | 153 kts | 300° |
| 2026-04-26 05:30 | 45.54241 | -122.48669 | 1554 ft | 151 kts | 300° |
| 2026-04-26 05:31 | 45.54761 | -122.49989 | 1363 ft | 152 kts | 300° |
| 2026-04-26 05:31 | 45.55276 | -122.51297 | 1177 ft | 149 kts | 300° |
| 2026-04-26 05:31 | 45.55777 | -122.52576 | 1000 ft | 148 kts | 299° |
| 2026-04-26 05:31 | 45.56276 | -122.53852 | 798 ft | 146 kts | 300° |
| 2026-04-26 05:32 | 45.56777 | -122.55128 | 575 ft | 147 kts | 300° |
| 2026-04-26 05:32 | 45.57274 | -122.56394 | 385 ft | 146 kts | 300° |
| 2026-04-26 05:32 | 45.57763 | -122.57649 | 182 ft | 143 kts | 300° |
| 2026-04-26 05:32 | 45.58232 | -122.58846 | 35 ft | 130 kts | 297° |
| 2026-04-26 05:33 | 45.58559 | -122.59683 | 33 ft | 64 kts | 299° |
| 2026-04-26 05:33 | 45.58705 | -122.60043 | 31 ft | 17 kts | 304° |
| 2026-04-26 05:33 | 45.58800 | -122.60175 | 31 ft | 22 kts | 324° |
| 2026-04-26 05:33 | 45.58905 | -122.60231 | 30 ft | 10 kts | 3° |
| 2026-04-26 05:34 | 45.58940 | -122.60211 | 30 ft | 6 kts | 39° |
| 2026-04-26 05:34 | 45.58963 | -122.60177 | 30 ft | 0 kts | 56° |
| 2026-04-26 05:34 | 45.58974 | -122.60129 | 30 ft | 10 kts | 85° |
| 2026-04-26 05:34 | 45.58979 | -122.60038 | 30 ft | 5 kts | 84° |
| 2026-04-26 05:35 | 45.58981 | -122.60008 | 30 ft | 1 kts | 85° |
| 2026-04-26 05:35 | 45.58982 | -122.59998 | 30 ft | 0 kts | 85° |